Time;durP1;ratioP1;P1;durP2;ratioP2;P2;SDS_P1;SDS_P2;PMS_P1;PMS_P2;Temp;Humidity;BMP_temperature;BMP_pressure;BME280_temperature;BME280_humidity;BME280_pressure;Samples;Min_cycle;Max_cycle;Signal;HPM_P1;HPM_P2
2022/09/21 00:00:53;;;;;;;3.10;2.50;;;;;;;8.56;94.53;101185.70;1731835;82;21031;-84
2022/09/21 00:03:22;;;;;;;5.77;2.57;;;;;;;8.53;94.45;101191.83;1731841;82;21070;-85
2022/09/21 00:05:49;;;;;;;3.77;2.53;;;;;;;8.50;94.45;101190.58;1731827;82;21133;-85
2022/09/21 00:08:16;;;;;;;3.63;2.30;;;;;;;8.50;94.44;101190.58;1731948;82;21027;-84
2022/09/21 00:10:49;;;;;;;3.80;2.37;;;;;;;8.44;94.19;101190.67;1731852;82;21512;-83
2022/09/21 00:13:18;;;;;;;4.17;2.57;;;;;;;8.39;94.26;101189.43;1711166;82;21027;-84
2022/09/21 00:15:45;;;;;;;4.60;2.47;;;;;;;8.36;94.52;101185.53;1731835;82;21359;-86
2022/09/21 00:18:12;;;;;;;3.30;2.63;;;;;;;8.35;94.42;101186.88;1731769;82;21116;-84
2022/09/21 00:20:42;;;;;;;4.17;2.70;;;;;;;8.32;94.52;101186.92;1731773;81;21012;-84
2022/09/21 00:23:10;;;;;;;4.45;3.02;;;;;;;8.30;94.70;101184.77;1731885;82;21456;-84
2022/09/21 00:25:37;;;;;;;5.93;2.67;;;;;;;8.31;94.76;101187.80;1731845;82;21036;-84
2022/09/21 00:28:04;;;;;;;3.70;2.70;;;;;;;8.28;94.68;101188.70;1731896;82;21008;-84
2022/09/21 00:30:31;;;;;;;3.73;2.60;;;;;;;8.27;94.88;101193.52;1731802;82;21179;-84
2022/09/21 00:32:58;;;;;;;3.03;2.50;;;;;;;8.29;95.20;101190.89;1731835;82;21024;-84
2022/09/21 00:35:25;;;;;;;3.80;2.47;;;;;;;8.30;95.15;101190.00;1731686;82;21004;-84
2022/09/21 00:37:52;;;;;;;4.13;2.67;;;;;;;8.26;94.98;101193.97;1731908;82;21564;-84
2022/09/21 00:40:19;;;;;;;4.77;2.60;;;;;;;8.29;95.11;101193.51;1731776;82;20973;-84
2022/09/21 00:42:46;;;;;;;5.90;2.60;;;;;;;8.27;94.97;101198.73;1731897;81;21046;-83
2022/09/21 00:45:19;;;;;;;6.37;2.70;;;;;;;8.23;95.00;101197.93;1731910;82;20976;-84
2022/09/21 00:47:44;;;;;;;3.47;2.30;;;;;;;8.21;94.94;101202.30;1711666;82;21000;-84
2022/09/21 00:50:15;;;;;;;4.03;2.57;;;;;;;8.21;95.11;101202.75;1731816;82;21339;-83
2022/09/21 00:52:53;;;;;;;3.90;2.70;;;;;;;8.21;95.16;101209.28;1732130;82;21462;-83
2022/09/21 00:55:26;;;;;;;5.37;2.70;;;;;;;8.20;95.26;101201.89;1732214;82;21091;-84
2022/09/21 00:57:58;;;;;;;5.27;2.90;;;;;;;8.20;95.21;101207.53;1711149;82;21020;-85
2022/09/21 01:00:25;;;;;;;4.40;2.63;;;;;;;8.19;95.37;101211.91;1732156;82;21000;-85
2022/09/21 01:03:00;;;;;;;3.83;2.47;;;;;;;8.21;95.53;101208.84;1731882;82;21023;-84
2022/09/21 01:05:23;;;;;;;5.92;3.10;;;;;;;8.18;95.29;101210.64;1731446;82;21548;-84
2022/09/21 01:07:50;;;;;;;4.23;2.50;;;;;;;8.15;95.32;101216.77;1731683;82;21128;-84
2022/09/21 01:10:19;;;;;;;4.10;2.90;;;;;;;8.14;95.18;101222.84;1731803;82;21000;-83
2022/09/21 01:13:03;;;;;;;5.33;2.43;;;;;;;8.09;94.87;101218.58;1713515;82;21581;-83
2022/09/21 01:16:00;;;;;;;5.23;2.63;;;;;;;8.02;94.92;101216.05;1713018;82;21088;-84
2022/09/21 01:18:48;;;;;;;7.10;3.17;;;;;;;8.00;95.05;101220.42;1709531;82;21032;-84
2022/09/21 01:21:23;;;;;;;3.27;2.63;;;;;;;7.95;94.98;101218.76;1732363;82;21043;-84
2022/09/21 01:24:16;;;;;;;3.10;2.50;;;;;;;7.92;95.25;101220.11;1731823;82;20999;-84
2022/09/21 01:27:23;;;;;;;3.87;2.67;;;;;;;7.91;95.28;101219.70;1696221;82;21031;-84
2022/09/21 01:29:57;;;;;;;4.00;2.70;;;;;;;7.86;95.32;101226.72;1699974;83;21032;-83
2022/09/21 01:32:29;;;;;;;5.37;2.90;;;;;;;7.86;95.54;101217.14;1689844;83;21032;-84
2022/09/21 01:35:25;;;;;;;3.47;2.37;;;;;;;7.81;95.37;101221.13;1714178;82;21968;-86
2022/09/21 01:38:10;;;;;;;4.60;2.63;;;;;;;7.80;95.54;101230.27;1732120;82;20936;-84
2022/09/21 01:40:49;;;;;;;4.43;2.90;;;;;;;7.79;95.66;101231.16;1731720;82;20974;-82
2022/09/21 01:43:24;;;;;;;4.07;2.70;;;;;;;7.79;95.82;101228.11;1731241;82;21028;-84
2022/09/21 01:45:55;;;;;;;6.07;2.50;;;;;;;7.78;95.84;101233.33;1731979;82;21497;-84
2022/09/21 01:48:24;;;;;;;5.83;2.90;;;;;;;7.78;95.94;101229.41;1731798;81;21188;-84
2022/09/21 01:50:55;;;;;;;6.90;2.62;;;;;;;7.75;95.84;101230.31;1731811;82;21462;-84
2022/09/21 01:53:46;;;;;;;3.93;2.70;;;;;;;7.73;95.75;101232.52;1731784;82;21453;-84
2022/09/21 01:56:21;;;;;;;3.87;2.80;;;;;;;7.75;96.19;101232.92;1711867;82;21601;-84
2022/09/21 01:59:29;;;;;;;4.77;2.63;;;;;;;7.72;95.83;101236.02;1732083;82;21060;-85
2022/09/21 02:02:01;;;;;;;4.27;3.03;;;;;;;7.68;95.78;101229.98;1719092;82;21866;-84
2022/09/21 02:04:28;;;;;;;5.30;2.90;;;;;;;7.65;95.78;101240.45;1731653;81;21027;-85
2022/09/21 02:06:55;;;;;;;7.00;3.27;;;;;;;7.64;95.93;101239.16;1733034;82;21047;-85
2022/09/21 02:09:24;;;;;;;6.27;3.50;;;;;;;7.62;96.07;101237.89;1734515;82;21020;-85
2022/09/21 02:11:51;;;;;;;4.70;3.43;;;;;;;7.59;95.90;101241.81;1714489;82;21448;-84
2022/09/21 02:14:22;;;;;;;5.10;3.50;;;;;;;7.58;96.10;101240.95;1734596;82;21793;-84
2022/09/21 02:17:18;;;;;;;4.28;3.37;;;;;;;7.59;96.12;101241.39;1734904;82;21000;-85
2022/09/21 02:20:02;;;;;;;4.33;3.37;;;;;;;7.56;96.14;101240.09;1734643;82;21023;-84
2022/09/21 02:22:46;;;;;;;4.63;3.50;;;;;;;7.57;96.41;101242.29;1716008;82;21102;-85
2022/09/21 02:25:19;;;;;;;8.10;3.40;;;;;;;7.56;96.17;101241.84;1734675;82;22233;-85
2022/09/21 02:28:19;;;;;;;6.47;3.80;;;;;;;7.53;96.27;101246.66;1734849;82;21412;-85
2022/09/21 02:30:52;;;;;;;6.55;4.10;;;;;;;7.52;96.40;101243.63;1734229;82;21015;-85
2022/09/21 02:33:28;;;;;;;8.77;3.53;;;;;;;7.55;96.72;101245.34;1734531;82;21489;-84
2022/09/21 02:36:09;;;;;;;6.67;3.93;;;;;;;7.58;96.89;101238.79;1734672;82;20981;-85
2022/09/21 02:38:45;;;;;;;5.87;3.57;;;;;;;7.57;96.63;101240.54;1734757;82;21015;-85
2022/09/21 02:41:27;;;;;;;5.83;3.37;;;;;;;7.58;96.63;101240.09;1734640;82;21541;-84
2022/09/21 02:44:14;;;;;;;6.13;3.70;;;;;;;7.56;96.78;101240.09;1734869;82;21496;-85
2022/09/21 02:46:52;;;;;;;6.67;3.90;;;;;;;7.54;96.57;101243.19;1733899;82;20984;-84
2022/09/21 02:49:25;;;;;;;5.90;3.40;;;;;;;7.54;96.72;101239.72;1734876;81;21027;-86
2022/09/21 02:51:55;;;;;;;5.17;3.30;;;;;;;7.55;97.03;101244.90;1734490;82;21007;-86
2022/09/21 02:54:27;;;;;;;4.63;3.20;;;;;;;7.55;96.75;101245.34;1716383;82;21201;-85
2022/09/21 02:56:55;;;;;;;4.67;3.57;;;;;;;7.54;96.85;101251.46;1710816;82;21289;-85
2022/09/21 02:59:22;;;;;;;5.13;3.57;;;;;;;7.58;97.24;101254.44;1723966;82;21541;-85
2022/09/21 03:01:51;;;;;;;6.90;4.03;;;;;;;7.60;97.26;101253.99;1717863;82;21063;-85
2022/09/21 03:04:18;;;;;;;4.37;3.10;;;;;;;7.60;97.08;101256.60;1732239;82;21004;-84
2022/09/21 03:06:46;;;;;;;5.13;3.77;;;;;;;7.59;97.09;101257.46;1732702;82;21112;-86
2022/09/21 03:09:13;;;;;;;5.13;3.53;;;;;;;7.63;97.43;101266.14;1723479;83;21072;-85
2022/09/21 03:11:43;;;;;;;5.27;3.23;;;;;;;7.67;97.66;101267.82;1709411;83;21333;-84
2022/09/21 03:14:10;;;;;;;5.12;3.75;;;;;;;7.71;97.79;101274.30;1726633;83;22478;-86
2022/09/21 03:16:38;;;;;;;4.53;3.53;;;;;;;7.75;97.74;101273.81;1726497;82;21012;-84
2022/09/21 03:19:05;;;;;;;7.03;3.90;;;;;;;7.76;97.60;101276.42;1726529;83;21482;-86
2022/09/21 03:21:33;;;;;;;5.20;3.60;;;;;;;7.76;97.49;101275.13;1726444;82;21049;-84
2022/09/21 03:24:00;;;;;;;7.77;3.30;;;;;;;7.76;97.56;101273.81;1726431;82;21077;-86
2022/09/21 03:26:27;;;;;;;6.67;3.30;;;;;;;7.78;97.41;101279.00;1721414;83;21095;-84
2022/09/21 03:28:54;;;;;;;3.97;3.23;;;;;;;7.77;97.40;101278.14;1711574;83;21541;-83
2022/09/21 03:31:22;;;;;;;5.10;3.40;;;;;;;7.77;97.48;101278.59;1726374;82;21125;-85
2022/09/21 03:33:49;;;;;;;6.70;3.80;;;;;;;7.77;97.44;101278.14;1726679;83;21043;-85
2022/09/21 03:36:16;;;;;;;5.07;3.60;;;;;;;7.78;97.71;101274.64;1726457;83;21032;-84
2022/09/21 03:38:43;;;;;;;5.57;3.77;;;;;;;7.80;97.61;101280.71;1726722;83;20965;-84
2022/09/21 03:41:10;;;;;;;6.20;3.53;;;;;;;7.78;97.60;101275.94;1726423;82;21048;-82
2022/09/21 03:43:37;;;;;;;5.03;3.83;;;;;;;7.81;97.62;101284.19;1726687;83;21103;-85
2022/09/21 03:46:04;;;;;;;6.63;3.97;;;;;;;7.81;97.58;101290.70;1726366;83;21064;-84
2022/09/21 03:48:31;;;;;;;4.70;3.30;;;;;;;7.79;97.67;101286.83;1726680;83;21028;-84
2022/09/21 03:50:58;;;;;;;6.43;3.90;;;;;;;7.81;97.79;101290.70;1726340;83;21498;-85
2022/09/21 03:53:26;;;;;;;5.30;3.73;;;;;;;7.82;97.66;101288.55;1726411;83;21027;-85
2022/09/21 03:55:53;;;;;;;5.20;4.13;;;;;;;7.81;97.70;101287.69;1726845;82;21038;-84
2022/09/21 03:58:21;;;;;;;4.97;3.90;;;;;;;7.79;97.58;101292.05;1726560;82;21449;-84
2022/09/21 04:00:48;;;;;;;5.97;4.03;;;;;;;7.81;97.92;101294.63;1698654;83;21027;-85
2022/09/21 04:03:15;;;;;;;6.83;4.20;;;;;;;7.80;97.89;101293.77;1714418;83;20973;-84
2022/09/21 04:05:42;;;;;;;5.33;4.33;;;;;;;7.82;97.93;101294.62;1726623;83;21032;-84
2022/09/21 04:08:09;;;;;;;5.40;3.90;;;;;;;7.86;98.16;101295.44;1730067;82;21126;-85
2022/09/21 04:10:39;;;;;;;6.77;4.00;;;;;;;7.89;98.22;101303.23;1732084;82;21027;-84
2022/09/21 04:13:06;;;;;;;;;;;;;;;7.91;98.07;101304.53;1734427;82;21485;-83
2022/09/21 04:15:33;;;;;;;7.53;4.00;;;;;;;7.92;98.16;101304.94;1732221;82;20139;-84
2022/09/21 04:18:01;;;;;;;6.93;3.93;;;;;;;7.92;98.16;101312.33;1731829;82;21487;-83
2022/09/21 04:20:29;;;;;;;8.73;4.30;;;;;;;7.93;98.08;101315.83;1732069;82;21461;-84
2022/09/21 04:22:56;;;;;;;7.57;4.50;;;;;;;7.93;98.07;101311.91;1731788;81;21255;-84
2022/09/21 04:25:23;;;;;;;6.63;4.53;;;;;;;7.94;97.99;101316.24;1731815;82;21008;-84
2022/09/21 04:27:51;;;;;;;6.20;5.00;;;;;;;7.94;97.96;101314.48;1732098;82;21016;-84
2022/09/21 04:30:18;;;;;;;6.10;5.07;;;;;;;7.94;98.01;101311.87;1731806;82;21027;-83
2022/09/21 04:32:45;;;;;;;6.07;4.80;;;;;;;7.96;98.19;101311.87;1732160;81;21767;-84
2022/09/21 04:35:12;;;;;;;8.40;5.20;;;;;;;7.97;98.17;101312.28;1731908;82;20999;-84
2022/09/21 04:37:40;;;;;;;6.33;4.87;;;;;;;7.98;98.05;101317.92;1731996;82;21024;-85
2022/09/21 04:40:08;;;;;;;7.57;5.37;;;;;;;7.98;98.17;101318.81;1731828;82;21019;-85
2022/09/21 04:42:35;;;;;;;7.40;4.93;;;;;;;7.99;98.08;101317.05;1732214;82;20980;-85
2022/09/21 04:45:03;;;;;;;6.03;5.13;;;;;;;7.98;97.97;101317.50;1731864;82;21112;-84
2022/09/21 04:47:31;;;;;;;7.50;5.27;;;;;;;7.98;97.91;101313.59;1731986;82;20931;-84
2022/09/21 04:49:58;;;;;;;6.00;5.27;;;;;;;7.97;98.08;101317.51;1731767;82;21563;-85
2022/09/21 04:52:25;;;;;;;8.67;5.80;;;;;;;7.97;98.23;101314.45;1731833;82;21033;-84
2022/09/21 04:54:53;;;;;;;7.67;6.57;;;;;;;7.96;98.38;101319.26;1732120;82;21019;-84
2022/09/21 04:57:20;;;;;;;11.13;6.83;;;;;;;7.98;98.33;101326.64;1731979;82;21108;-85
2022/09/21 04:59:47;;;;;;;9.00;6.67;;;;;;;7.97;98.22;101320.98;1731744;82;21072;-84
2022/09/21 05:02:14;;;;;;;7.57;6.33;;;;;;;7.99;98.54;101329.66;1711450;82;21502;-85
2022/09/21 05:04:41;;;;;;;7.77;6.63;;;;;;;7.99;98.27;101324.89;1731773;82;21473;-86
2022/09/21 05:07:08;;;;;;;9.17;6.97;;;;;;;7.94;98.04;101328.84;1731235;82;21433;-86
2022/09/21 05:12:21;;;;;;;7.50;6.17;;;;;;;7.92;98.24;101330.60;1726541;83;21079;-85
2022/09/21 05:14:48;;;;;;;9.33;6.87;;;;;;;7.91;98.39;101328.03;1726361;81;21012;-85
2022/09/21 05:17:15;;;;;;;6.57;5.77;;;;;;;7.91;98.53;101328.88;1726553;81;21045;-85
2022/09/21 05:19:42;;;;;;;7.93;6.27;;;;;;;7.93;98.53;101334.10;1726470;83;21099;-83
2022/09/21 05:22:09;;;;;;;8.30;6.33;;;;;;;7.95;98.63;101337.53;1726393;83;22103;-85
2022/09/21 05:24:37;;;;;;;6.80;5.70;;;;;;;7.95;98.84;101344.06;1726455;82;21017;-84
2022/09/21 05:27:04;;;;;;;9.03;7.00;;;;;;;7.97;99.00;101338.39;1712535;82;21063;-90
2022/09/21 05:29:32;;;;;;;7.70;6.33;;;;;;;7.99;98.87;101340.55;1720228;83;21448;-88
2022/09/21 05:32:26;;;;;;;8.00;6.50;;;;;;;8.01;98.90;101344.88;1716575;83;21118;-87
2022/09/21 05:35:23;;;;;;;8.37;6.40;;;;;;;8.03;99.14;101342.23;1699886;83;21146;-89
2022/09/21 05:38:02;;;;;;;7.37;6.57;;;;;;;8.07;99.14;101342.64;1703172;83;21012;-84
2022/09/21 05:40:30;;;;;;;10.83;7.13;;;;;;;8.11;99.27;101340.84;1710485;83;21031;-89
2022/09/21 05:42:58;;;;;;;8.00;6.43;;;;;;;8.10;98.99;101340.44;1704291;83;21544;-89
2022/09/21 05:45:27;;;;;;;7.90;6.57;;;;;;;8.15;99.27;101347.78;1696712;83;21043;-85
2022/09/21 05:48:21;;;;;;;10.17;6.43;;;;;;;8.18;99.13;101347.73;1706899;83;21844;-89
2022/09/21 05:51:28;;;;;;;8.47;6.33;;;;;;;8.20;99.04;101345.95;1696084;82;21987;-89
2022/09/21 05:54:21;;;;;;;9.27;6.90;;;;;;;8.21;99.18;101347.25;1699529;82;21549;-86
2022/09/21 05:56:54;;;;;;;8.57;6.47;;;;;;;8.25;99.12;101353.30;1688880;83;21094;-88
2022/09/21 05:59:43;;;;;;;9.00;6.67;;;;;;;8.28;99.12;101358.47;1697556;82;21031;-88
2022/09/21 06:02:54;;;;;;;9.13;6.83;;;;;;;8.29;98.82;101360.67;1705233;83;21118;-90
2022/09/21 06:05:22;;;;;;;7.60;6.17;;;;;;;8.33;99.19;101364.52;1710099;83;21071;-89
2022/09/21 06:07:49;;;;;;;8.63;6.17;;;;;;;8.40;99.46;101365.35;1681067;83;21173;-88
2022/09/21 06:10:16;;;;;;;7.13;5.33;;;;;;;8.46;99.52;101370.48;1700543;83;21626;-89
2022/09/21 06:12:43;;;;;;;7.43;6.07;;;;;;;8.49;99.42;101367.39;1708475;83;21096;-89
2022/09/21 06:15:14;;;;;;;6.93;5.43;;;;;;;8.57;99.38;101367.30;1681044;83;21086;-89
2022/09/21 06:17:41;;;;;;;;;;;;;;;8.58;99.05;101366.40;1705437;83;21059;-89
2022/09/21 06:20:09;;;;;;;7.10;5.27;;;;;;;8.62;99.25;101369.86;1684700;84;20487;-88
2022/09/21 06:22:36;;;;;;;7.47;5.57;;;;;;;8.65;99.34;101369.81;1684561;84;21466;-89
2022/09/21 06:25:04;;;;;;;7.93;5.53;;;;;;;8.71;99.40;101373.64;1672364;84;22200;-88
2022/09/21 06:27:32;;;;;;;6.23;5.23;;;;;;;8.75;99.21;101375.31;1671140;84;21181;-90
2022/09/21 06:29:59;;;;;;;5.87;5.00;;;;;;;8.81;99.26;101377.87;1684399;84;21052;-87
2022/09/21 06:32:26;;;;;;;6.67;5.10;;;;;;;8.87;99.14;101376.92;1671245;84;21112;-86
2022/09/21 06:34:53;;;;;;;6.90;5.10;;;;;;;8.90;99.29;101377.73;1678577;84;21017;-91
2022/09/21 06:37:20;;;;;;;7.67;4.37;;;;;;;8.97;99.13;101380.24;1675287;84;21040;-90
2022/09/21 06:39:47;;;;;;;6.27;4.73;;;;;;;8.99;98.94;101381.95;1680090;84;21112;-91
2022/09/21 06:42:14;;;;;;;5.77;4.50;;;;;;;9.03;98.94;101382.77;1697965;83;21021;-87
2022/09/21 06:44:41;;;;;;;5.13;4.17;;;;;;;9.07;99.11;101390.55;1699696;83;21407;-88
2022/09/21 06:47:08;;;;;;;5.77;4.77;;;;;;;9.11;99.04;101392.22;1703483;83;21076;-88
2022/09/21 06:49:35;;;;;;;7.10;4.30;;;;;;;9.17;98.98;101399.11;1700470;83;21028;-84
2022/09/21 06:52:03;;;;;;;6.97;4.03;;;;;;;9.19;98.83;101395.17;1702771;83;21140;-82
2022/09/21 06:54:30;;;;;;;5.13;4.20;;;;;;;9.23;98.72;101402.96;1688619;83;21043;-85
2022/09/21 06:56:57;;;;;;;5.00;4.40;;;;;;;9.25;98.72;101404.23;1690787;83;21490;-84
2022/09/21 06:59:24;;;;;;;6.90;4.43;;;;;;;9.28;98.79;101401.56;1710901;83;21015;-83
2022/09/21 07:01:54;;;;;;;5.60;4.17;;;;;;;9.34;98.85;101401.48;1698069;83;21045;-85
2022/09/21 07:04:23;;;;;;;5.77;4.07;;;;;;;9.38;98.92;101404.01;1712482;83;21178;-85
2022/09/21 07:06:50;;;;;;;6.60;4.50;;;;;;;9.44;98.77;101402.19;1713426;83;21021;-85
2022/09/21 07:09:18;;;;;;;5.80;4.27;;;;;;;9.50;98.67;101402.08;1709307;83;21065;-86
2022/09/21 07:11:46;;;;;;;5.73;4.10;;;;;;;9.53;98.41;101396.37;1708310;83;21049;-81
2022/09/21 07:14:13;;;;;;;5.73;3.70;;;;;;;9.55;98.46;101401.56;1708218;83;21037;-82
2022/09/21 07:16:42;;;;;;;5.80;4.10;;;;;;;9.61;98.90;101406.69;1708445;83;21072;-85
2022/09/21 07:19:09;;;;;;;5.57;3.73;;;;;;;9.70;98.95;101411.79;1708111;83;21041;-85
2022/09/21 07:21:36;;;;;;;5.47;4.03;;;;;;;9.74;98.68;101409.97;1700083;83;21552;-85
2022/09/21 07:24:03;;;;;;;5.47;4.30;;;;;;;9.78;98.76;101411.63;1708228;83;21515;-85
2022/09/21 07:26:30;;;;;;;6.47;4.30;;;;;;;9.86;98.78;101418.05;1688856;83;21029;-85
2022/09/21 07:28:57;;;;;;;6.27;4.63;;;;;;;9.90;98.72;101415.36;1707673;83;21132;-85
2022/09/21 07:31:24;;;;;;;5.50;3.98;;;;;;;9.97;98.86;101413.03;1704137;83;21076;-82
2022/09/21 07:33:56;;;;;;;5.93;4.43;;;;;;;10.02;98.52;101411.19;1696196;83;21092;-86
2022/09/21 07:36:24;;;;;;;6.17;4.35;;;;;;;10.05;98.31;101412.89;1708551;83;21040;-84
2022/09/21 07:38:52;;;;;;;6.73;4.00;;;;;;;10.08;98.39;101410.66;1697519;83;21562;-86
2022/09/21 07:41:20;;;;;;;5.40;3.90;;;;;;;10.14;98.41;101414.47;1724064;83;21133;-81
2022/09/21 07:43:47;;;;;;;5.35;4.12;;;;;;;10.15;98.17;101414.45;1714971;82;21008;-82
2022/09/21 07:46:14;;;;;;;4.77;3.83;;;;;;;10.18;98.12;101417.02;1723914;83;21056;-84
2022/09/21 07:48:42;;;;;;;5.30;4.23;;;;;;;10.22;98.01;101416.50;1723819;82;21012;-84
2022/09/21 07:51:12;;;;;;;5.10;4.40;;;;;;;10.26;98.07;101413.80;1725287;83;21572;-84
2022/09/21 07:53:43;;;;;;;5.58;4.35;;;;;;;10.31;98.07;101417.69;1706927;83;21203;-84
2022/09/21 07:56:16;;;;;;;6.15;4.60;;;;;;;10.37;98.32;101417.56;1726214;83;21020;-83
2022/09/21 08:01:30;;;;;;;7.47;4.35;;;;;;;10.49;98.22;101421.69;1710640;83;21035;-84
2022/09/21 08:03:58;;;;;;;5.93;4.33;;;;;;;10.56;98.09;101423.30;1722501;81;21137;-84
2022/09/21 08:06:32;;;;;;;5.62;4.42;;;;;;;10.62;98.15;101421.85;1726301;83;21943;-84
2022/09/21 08:09:01;;;;;;;5.03;4.07;;;;;;;10.71;98.31;101421.64;1726205;83;20988;-84
2022/09/21 08:11:30;;;;;;;6.47;4.70;;;;;;;10.78;98.23;101422.40;1726447;82;21008;-84
2022/09/21 08:14:01;;;;;;;4.58;3.95;;;;;;;10.86;98.01;101424.83;1726488;83;20992;-84
2022/09/21 08:16:29;;;;;;;5.53;4.20;;;;;;;10.92;98.00;101425.58;1726374;83;21015;-84
2022/09/21 08:18:57;;;;;;;4.92;3.70;;;;;;;10.99;97.75;101421.05;1726498;82;22114;-84
2022/09/21 08:21:24;;;;;;;9.68;5.05;;;;;;;11.05;97.91;101422.22;1726241;83;21505;-83
2022/09/21 08:23:51;;;;;;;9.53;5.35;;;;;;;11.14;97.88;101424.65;1726219;82;21008;-85
2022/09/21 08:26:20;;;;;;;8.73;5.70;;;;;;;11.24;98.00;101426.59;1724587;83;21020;-83
2022/09/21 08:28:50;;;;;;;5.85;4.05;;;;;;;11.33;97.91;101423.77;1708524;83;21063;-84
2022/09/21 08:31:21;;;;;;;4.05;3.15;;;;;;;11.43;97.79;101418.30;1726201;83;21954;-84
2022/09/21 08:33:49;;;;;;;5.55;3.92;;;;;;;11.52;97.50;101429.41;1726434;83;21000;-83
2022/09/21 08:36:18;;;;;;;4.65;3.72;;;;;;;11.60;97.57;101424.84;1726599;82;21024;-83
2022/09/21 08:38:45;;;;;;;5.42;2.92;;;;;;;11.68;97.48;101425.11;1726264;82;21048;-84
2022/09/21 08:41:36;;;;;;;5.92;3.50;;;;;;;11.77;97.16;101430.98;1726753;83;21016;-83
2022/09/21 08:44:21;;;;;;;4.05;3.00;;;;;;;11.83;96.93;101422.97;1726307;83;22207;-84
2022/09/21 08:46:53;;;;;;;4.83;2.90;;;;;;;11.95;97.06;101431.00;1726371;82;21008;-84
2022/09/21 08:49:25;;;;;;;4.65;3.35;;;;;;;12.09;97.00;101433.72;1706334;83;21513;-82
2022/09/21 08:52:00;;;;;;;3.27;2.98;;;;;;;12.21;97.07;101426.34;1697256;83;21498;-85
2022/09/21 08:54:48;;;;;;;4.60;4.08;;;;;;;12.32;96.90;101427.38;1697282;83;21015;-84
2022/09/21 08:57:17;;;;;;;5.08;3.45;;;;;;;12.48;96.78;101433.06;1697004;83;21136;-81
2022/09/21 08:59:47;;;;;;;5.50;3.33;;;;;;;12.56;96.21;101428.91;1697414;83;21062;-81
2022/09/21 09:03:02;;;;;;;4.45;3.40;;;;;;;12.62;96.09;101438.79;1701638;83;21012;-81
2022/09/21 09:05:50;;;;;;;4.17;3.12;;;;;;;12.67;95.68;101430.31;1666627;85;20996;-81
2022/09/21 09:08:41;;;;;;;4.15;2.20;;;;;;;12.78;95.60;101433.09;1745817;80;21576;-81
2022/09/21 09:11:34;;;;;;;4.28;2.02;;;;;;;12.87;95.26;101428.86;1709074;83;21105;-85
2022/09/21 09:14:43;;;;;;;3.60;2.65;;;;;;;12.93;94.92;101433.94;1692079;84;21531;-81
2022/09/21 09:17:39;;;;;;;3.45;2.95;;;;;;;13.01;94.46;101430.62;1729241;83;20994;-83
2022/09/21 09:20:30;;;;;;;3.92;2.80;;;;;;;13.08;94.59;101429.95;1715092;83;21424;-82
2022/09/21 09:23:15;;;;;;;3.58;2.40;;;;;;;13.16;94.44;101430.58;1715745;83;21040;-81
2022/09/21 09:25:44;;;;;;;4.72;2.25;;;;;;;13.24;94.33;101430.35;1712259;83;21162;-82
2022/09/21 09:28:29;;;;;;;5.25;2.45;;;;;;;13.32;94.32;101431.86;1715654;83;20989;-85
2022/09/21 09:31:31;;;;;;;3.37;2.15;;;;;;;13.37;93.73;101430.41;1715942;83;21049;-82
2022/09/21 09:34:08;;;;;;;4.33;2.10;;;;;;;13.45;93.39;101431.48;1691062;83;21035;-81
2022/09/21 09:36:38;;;;;;;3.35;2.00;;;;;;;13.58;93.54;101425.77;1715638;83;21056;-81
2022/09/21 09:39:13;;;;;;;4.03;2.42;;;;;;;13.71;93.62;101427.51;1715564;83;21152;-81
2022/09/21 09:42:04;;;;;;;3.35;2.37;;;;;;;13.78;92.79;101425.55;1715931;83;21048;-85
2022/09/21 09:44:49;;;;;;;6.50;2.85;;;;;;;13.79;92.73;101422.84;1714961;83;21496;-82
2022/09/21 09:47:37;;;;;;;4.17;2.12;;;;;;;13.86;92.89;101426.15;1715518;83;21082;-82
2022/09/21 09:50:28;;;;;;;3.95;2.10;;;;;;;13.88;92.09;101422.12;1714653;83;21020;-86
2022/09/21 09:53:00;;;;;;;3.45;1.85;;;;;;;13.89;92.07;101423.87;1715847;83;21125;-82
2022/09/21 09:55:36;;;;;;;4.10;1.75;;;;;;;13.94;91.84;101425.42;1715464;83;21393;-82
2022/09/21 09:58:04;;;;;;;3.12;1.90;;;;;;;13.98;91.84;101423.08;1716008;83;21045;-81
2022/09/21 10:00:31;;;;;;;3.47;1.45;;;;;;;14.03;91.54;101425.56;1711551;83;21624;-81
2022/09/21 10:02:59;;;;;;;2.67;2.27;;;;;;;14.10;91.20;101431.00;1713463;83;21022;-87
2022/09/21 10:05:37;;;;;;;3.20;2.17;;;;;;;14.23;91.30;101423.53;1715640;83;21123;-83
2022/09/21 10:08:04;;;;;;;4.55;2.20;;;;;;;14.31;90.72;101421.48;1715893;83;21033;-82
2022/09/21 10:10:38;;;;;;;2.52;1.85;;;;;;;14.45;90.99;101420.97;1713480;83;21491;-82
2022/09/21 10:13:29;;;;;;;2.40;1.65;;;;;;;14.51;90.54;101416.32;1713001;83;21069;-84
2022/09/21 10:16:07;;;;;;;2.37;1.52;;;;;;;14.68;90.25;101417.50;1699780;82;21080;-83
2022/09/21 10:18:46;;;;;;;2.58;1.72;;;;;;;14.93;90.10;101408.17;1703859;82;21387;-82
2022/09/21 10:21:23;;;;;;;3.27;1.72;;;;;;;15.25;90.36;101414.83;1706666;82;20996;-82
2022/09/21 10:24:01;;;;;;;2.92;1.40;;;;;;;15.49;90.10;101412.09;1702585;82;21015;-85
2022/09/21 10:26:37;;;;;;;2.12;1.30;;;;;;;15.67;89.37;101407.84;1705826;82;22117;-83
2022/09/21 10:29:21;;;;;;;4.53;1.90;;;;;;;15.89;88.73;101407.36;1707691;82;21050;-84
2022/09/21 10:32:06;;;;;;;2.85;1.80;;;;;;;15.97;88.47;101407.88;1718660;82;21132;-82
2022/09/21 10:34:34;;;;;;;2.25;1.60;;;;;;;16.08;88.35;101406.09;1701823;82;20975;-83
2022/09/21 10:37:23;;;;;;;1.37;1.02;;;;;;;16.06;87.13;101410.58;1710665;82;21418;-82
2022/09/21 10:39:51;;;;;;;0.90;0.80;;;;;;;15.97;86.30;101412.31;1702449;82;21031;-81
2022/09/21 10:42:20;;;;;;;1.90;0.82;;;;;;;15.85;85.51;101409.72;1713087;82;21027;-81
2022/09/21 10:44:54;;;;;;;2.15;1.15;;;;;;;15.79;85.16;101413.48;1705424;82;21105;-81
2022/09/21 10:47:43;;;;;;;1.90;1.05;;;;;;;15.78;85.31;101406.48;1701332;82;21040;-81
2022/09/21 10:50:48;;;;;;;1.42;1.10;;;;;;;15.80;85.20;101404.64;1702778;81;27836;-82
2022/09/21 10:53:34;;;;;;;0.90;0.80;;;;;;;15.84;84.97;101400.94;1701900;82;21031;-83
2022/09/21 10:56:19;;;;;;;2.20;0.88;;;;;;;15.87;84.60;101392.02;1702487;81;20996;-81
2022/09/21 10:59:26;;;;;;;0.82;0.70;;;;;;;15.98;84.19;101388.91;1702475;82;21178;-82
2022/09/21 11:01:56;;;;;;;1.70;0.85;;;;;;;16.21;84.00;101390.08;1702742;82;21000;-83
2022/09/21 11:04:43;;;;;;;1.37;0.80;;;;;;;16.51;83.76;101387.80;1731675;82;21000;-81
2022/09/21 11:07:18;;;;;;;2.60;0.80;;;;;;;16.77;83.72;101386.26;1731600;82;21035;-83
2022/09/21 11:10:16;;;;;;;1.65;0.98;;;;;;;17.07;83.13;101384.79;1729798;82;21012;-83
2022/09/21 11:12:58;;;;;;;1.22;0.62;;;;;;;17.35;82.99;101385.61;1726240;82;21242;-82
2022/09/21 11:15:45;;;;;;;1.17;0.70;;;;;;;17.73;82.56;101383.27;1725573;82;21035;-81
2022/09/21 11:18:26;;;;;;;1.05;0.65;;;;;;;17.94;81.65;101385.33;1708990;83;21059;-81
2022/09/21 11:21:01;;;;;;;2.02;0.72;;;;;;;18.12;80.89;101373.73;1683588;83;21020;-82
2022/09/21 11:23:42;;;;;;;0.65;0.60;;;;;;;18.37;80.52;101375.08;1726330;82;21570;-81
2022/09/21 11:26:26;;;;;;;0.90;0.90;;;;;;;18.66;79.95;101374.82;1726017;82;21312;-81
2022/09/21 11:29:01;;;;;;;1.00;0.90;;;;;;;18.94;79.47;101375.48;1726340;81;20991;-81
2022/09/21 11:32:01;;;;;;;0.70;0.68;;;;;;;19.24;79.11;101383.52;1705241;83;21020;-81
2022/09/21 11:35:07;;;;;;;1.72;0.80;;;;;;;19.44;78.36;101374.38;1726114;82;21533;-82
2022/09/21 11:37:59;;;;;;;0.70;0.60;;;;;;;19.45;77.04;101364.59;1726494;83;21008;-81
2022/09/21 11:40:47;;;;;;;1.15;0.80;;;;;;;19.06;75.65;101364.63;1711200;81;21209;-81
2022/09/21 11:43:56;;;;;;;1.60;0.70;;;;;;;18.65;75.04;101366.45;1686810;82;21028;-81
2022/09/21 11:47:01;;;;;;;1.52;0.85;;;;;;;18.22;74.80;101360.84;1726131;82;21092;-82
2022/09/21 11:49:48;;;;;;;1.07;0.90;;;;;;;17.77;74.33;101371.11;1720479;83;21012;-81
2022/09/21 11:52:27;;;;;;;2.52;1.37;;;;;;;17.30;74.53;101377.50;1725458;83;21043;-84
2022/09/21 11:55:12;;;;;;;1.60;1.50;;;;;;;16.85;74.52;101378.34;1725960;82;21061;-82
2022/09/21 11:58:10;;;;;;;2.20;1.40;;;;;;;16.41;74.97;101379.91;1726047;82;21052;-82
2022/09/21 12:00:43;;;;;;;2.17;1.77;;;;;;;16.03;75.62;101370.59;1720727;82;20997;-82
2022/09/21 12:03:49;;;;;;;1.98;1.42;;;;;;;15.75;76.56;101367.44;1651539;82;21024;-79
2022/09/21 12:06:40;;;;;;;1.80;1.60;;;;;;;15.58;77.36;101362.37;1726567;82;21028;-80
2022/09/21 12:09:38;;;;;;;8.68;1.72;;;;;;;15.43;77.96;101360.84;1726330;83;21068;-81
2022/09/21 12:12:13;;;;;;;2.95;2.08;;;;;;;15.37;78.50;101357.52;1726289;83;21016;-81